createdAt,value
2023-01-25T00:01:10.757Z,99811.19
2023-01-25T00:04:16.719Z,99818.41
2023-01-25T00:07:24.751Z,99809.38
2023-01-25T00:10:31.607Z,99807.06
2023-01-25T00:13:42.417Z,99801.78
2023-01-25T00:16:47.670Z,99795.53
2023-01-25T00:19:52.224Z,99790.03
2023-01-25T00:22:59.755Z,99795.78
2023-01-25T00:26:06.220Z,99787.19
2023-01-25T00:29:14.680Z,99792.31
2023-01-25T00:32:53.753Z,99789.53
2023-01-25T00:35:59.913Z,99785.88
2023-01-25T00:39:09.051Z,99785.13
2023-01-25T00:42:16.100Z,99783.94
2023-01-25T00:45:25.352Z,99799.75
2023-01-25T00:48:33.205Z,99795.78
2023-01-25T00:51:39.217Z,99795.59
2023-01-25T00:54:50.195Z,99780.97
2023-01-25T00:57:56.035Z,99776.53
2023-01-25T01:01:02.187Z,99771.22
2023-01-25T01:04:08.289Z,99772.06
2023-01-25T01:07:32.664Z,99771.22
2023-01-25T01:10:58.135Z,99773.25
2023-01-25T01:14:57.398Z,99765.28
2023-01-25T01:18:57.718Z,99774.28
2023-01-25T01:22:14.180Z,99767.53
2023-01-25T01:25:20.204Z,99759.78
2023-01-25T01:28:45.582Z,99766.97
2023-01-25T01:31:57.254Z,99773.13
2023-01-25T01:35:06.107Z,99763.78
2023-01-25T01:38:19.224Z,99771.09
2023-01-25T01:41:25.243Z,99765.34
2023-01-25T01:44:56.836Z,99766.53
2023-01-25T01:48:02.924Z,99769.28
2023-01-25T01:51:19.549Z,99760.69
2023-01-25T01:54:30.037Z,99769.19
2023-01-25T01:57:44.514Z,99778.78
2023-01-25T02:01:05.316Z,99770.06
2023-01-25T02:04:13.553Z,99773.00
2023-01-25T02:07:23.967Z,99765.84
2023-01-25T02:10:31.947Z,99763.63
2023-01-25T02:13:39.134Z,99766.94
2023-01-25T02:16:48.622Z,99764.63
2023-01-25T02:20:05.466Z,99770.56
2023-01-25T02:23:20.609Z,99768.47
2023-01-25T02:26:28.573Z,99758.69
2023-01-25T02:29:34.409Z,99757.06
2023-01-25T02:32:41.302Z,99759.53
2023-01-25T02:35:49.296Z,99756.47
2023-01-25T02:38:59.773Z,99743.75
2023-01-25T02:42:09.474Z,99748.06
2023-01-25T02:45:20.658Z,99753.97
2023-01-25T02:48:30.059Z,99755.63
2023-01-25T02:51:37.968Z,99751.31
2023-01-25T02:54:41.912Z,99747.88
2023-01-25T02:57:48.813Z,99736.66
2023-01-25T03:00:55.492Z,99731.94
2023-01-25T03:04:02.095Z,99733.38
2023-01-25T03:07:09.345Z,99728.38
2023-01-25T03:10:15.159Z,99722.31
2023-01-25T03:13:22.756Z,99720.69
2023-01-25T03:16:30.682Z,99723.53
2023-01-25T03:19:36.771Z,99718.81
2023-01-25T03:22:43.152Z,99712.00
2023-01-25T03:25:48.771Z,99706.88
2023-01-25T03:28:56.246Z,99710.88
2023-01-25T03:32:02.749Z,99711.44
2023-01-25T03:35:10.020Z,99708.22
2023-01-25T03:38:16.254Z,99717.25
2023-01-25T03:41:23.039Z,99712.38
2023-01-25T03:44:30.867Z,99714.19
2023-01-25T03:47:36.895Z,99713.19
2023-01-25T03:50:43.439Z,99702.66
2023-01-25T03:53:49.295Z,99708.00
2023-01-25T03:56:55.281Z,99709.81
2023-01-25T04:00:03.509Z,99710.28
2023-01-25T04:03:09.297Z,99708.19
2023-01-25T04:06:16.544Z,99705.91
2023-01-25T04:09:29.516Z,99709.19
2023-01-25T04:12:40.565Z,99702.47
2023-01-25T04:15:57.542Z,99702.47
2023-01-25T04:19:02.849Z,99696.56
2023-01-25T04:22:07.171Z,99700.25
2023-01-25T04:25:12.719Z,99703.53
2023-01-25T04:28:18.885Z,99708.63
2023-01-25T04:31:26.860Z,99689.00
2023-01-25T04:34:33.131Z,99688.81
2023-01-25T04:37:42.721Z,99677.81
2023-01-25T04:40:49.171Z,99682.88
2023-01-25T04:43:58.113Z,99680.34
2023-01-25T04:47:06.173Z,99692.06
2023-01-25T04:50:12.773Z,99685.53
2023-01-25T04:53:19.680Z,99681.59
2023-01-25T04:56:26.523Z,99689.97
2023-01-25T04:59:35.156Z,99688.31
2023-01-25T05:02:43.636Z,99687.31
2023-01-25T05:05:50.694Z,99685.91
2023-01-25T05:08:56.502Z,99685.31
2023-01-25T05:12:03.492Z,99682.66
2023-01-25T05:15:11.091Z,99679.22
2023-01-25T05:18:18.471Z,99684.53
2023-01-25T05:21:39.312Z,99678.59
2023-01-25T05:24:42.713Z,99673.47
2023-01-25T05:27:44.459Z,99673.47
2023-01-25T05:30:47.330Z,99675.09
2023-01-25T05:33:51.718Z,99678.38
2023-01-25T05:36:54.885Z,99672.84
2023-01-25T05:39:57.697Z,99674.28
2023-01-25T05:43:00.924Z,99672.47
2023-01-25T05:46:05.132Z,99672.47
2023-01-25T05:49:09.482Z,99671.81
2023-01-25T05:52:14.883Z,99663.88
2023-01-25T05:55:17.965Z,99661.84
2023-01-25T05:58:20.823Z,99660.22
2023-01-25T06:01:23.628Z,99658.50
2023-01-25T06:04:28.057Z,99658.34
2023-01-25T06:07:30.739Z,99661.63
2023-01-25T06:10:33.541Z,99658.34
2023-01-25T06:13:36.707Z,99653.66
2023-01-25T06:16:39.551Z,99656.13
2023-01-25T06:19:43.714Z,99653.03
2023-01-25T06:22:51.101Z,99653.25
2023-01-25T06:25:55.299Z,99659.75
2023-01-25T06:28:58.276Z,99652.00
2023-01-25T06:32:01.002Z,99651.00
2023-01-25T06:35:07.264Z,99645.63
2023-01-25T06:38:10.875Z,99647.25
2023-01-25T06:41:13.677Z,99644.16
2023-01-25T06:44:16.587Z,99648.34
2023-01-25T06:47:19.428Z,99643.56
2023-01-25T06:50:23.718Z,99644.81
2023-01-25T06:53:28.132Z,99643.22
2023-01-25T06:56:32.656Z,99638.75
2023-01-25T06:59:35.692Z,99643.22
2023-01-25T07:02:38.733Z,99632.66
2023-01-25T07:05:42.926Z,99635.94
2023-01-25T07:08:46.033Z,99629.81
2023-01-25T07:11:48.939Z,99627.28
2023-01-25T07:14:51.792Z,99628.66
2023-01-25T07:17:54.860Z,99628.47
2023-01-25T07:21:04.228Z,99627.63
2023-01-25T07:24:07.783Z,99625.19
2023-01-25T07:27:10.575Z,99625.19
2023-01-25T07:30:14.470Z,99624.22
2023-01-25T07:33:17.504Z,99617.09
2023-01-25T07:36:23.878Z,99616.66
2023-01-25T07:39:26.987Z,99612.00
2023-01-25T07:42:30.135Z,99610.34
2023-01-25T07:45:33.370Z,99612.63
2023-01-25T07:48:36.503Z,99601.00
2023-01-25T07:51:41.263Z,99611.84
2023-01-25T07:54:47.272Z,99607.34
2023-01-25T07:57:55.736Z,99618.97
2023-01-25T08:01:07.550Z,99618.59
2023-01-25T08:04:10.645Z,99617.38
2023-01-25T08:07:15.791Z,99624.78
2023-01-25T08:10:18.795Z,99626.59
2023-01-25T08:13:23.878Z,99625.97
2023-01-25T08:16:28.336Z,99616.97
2023-01-25T08:19:34.551Z,99621.50
2023-01-25T08:22:38.878Z,99619.47
2023-01-25T08:25:41.646Z,99610.88
2023-01-25T08:28:44.769Z,99625.00
2023-01-25T08:31:47.752Z,99630.16
2023-01-25T08:34:50.585Z,99619.47
2023-01-25T08:37:55.250Z,99621.09
2023-01-25T08:41:05.270Z,99616.22
2023-01-25T08:44:08.040Z,99611.34
2023-01-25T08:47:10.797Z,99608.94
2023-01-25T08:50:13.818Z,99606.66
2023-01-25T08:53:18.415Z,99601.53
2023-01-25T08:56:22.108Z,99592.75
2023-01-25T08:59:24.953Z,99595.03
2023-01-25T09:02:27.849Z,99591.97
2023-01-25T09:05:30.680Z,99586.69
2023-01-25T09:08:35.363Z,99588.75
2023-01-25T09:11:40.265Z,99577.13
2023-01-25T09:14:43.260Z,99581.19
2023-01-25T09:17:46.140Z,99591.97
2023-01-25T09:20:49.193Z,99588.97
2023-01-25T09:24:09.302Z,99590.22
2023-01-25T09:27:12.301Z,99581.47
2023-01-25T09:30:18.760Z,99581.41
2023-01-25T09:33:22.008Z,99579.34
2023-01-25T09:36:24.854Z,99583.25
2023-01-25T09:39:29.453Z,99580.59
2023-01-25T09:42:50.412Z,99581.22
2023-01-25T09:45:53.317Z,99585.91
2023-01-25T09:49:08.247Z,99584.28
2023-01-25T09:52:26.242Z,99587.56
2023-01-25T09:55:33.099Z,99580.78
2023-01-25T09:58:39.036Z,99576.16
2023-01-25T10:01:48.212Z,99579.22
2023-01-25T10:04:54.984Z,99577.41
2023-01-25T10:08:07.162Z,99569.25
2023-01-25T10:11:20.896Z,99569.47
2023-01-25T10:14:23.883Z,99570.28
2023-01-25T10:17:36.527Z,99562.06
2023-01-25T10:20:49.244Z,99565.09
2023-01-25T10:24:15.906Z,99569.19
2023-01-25T10:27:30.028Z,99561.88
2023-01-25T10:30:39.905Z,99550.63
2023-01-25T10:33:45.994Z,99553.31
2023-01-25T10:36:52.893Z,99537.78
2023-01-25T10:40:01.259Z,99545.97
2023-01-25T10:43:16.989Z,99540.84
2023-01-25T10:46:24.737Z,99533.88
2023-01-25T10:49:34.722Z,99535.72
2023-01-25T10:52:38.792Z,99527.97
2023-01-25T10:55:59.829Z,99524.41
2023-01-25T10:59:20.480Z,99524.00
2023-01-25T11:02:40.240Z,99529.25
2023-01-25T11:05:45.248Z,99523.94
2023-01-25T11:08:51.136Z,99512.91
2023-01-25T11:11:59.105Z,99512.53
2023-01-25T11:15:24.743Z,99508.47
2023-01-25T11:18:33.587Z,99506.47
2023-01-25T11:21:36.712Z,99515.25
2023-01-25T11:24:39.519Z,99508.34
2023-01-25T11:27:42.547Z,99511.16
2023-01-25T11:30:47.727Z,99507.69
2023-01-25T11:33:51.394Z,99491.16
2023-01-25T11:37:08.398Z,99488.69
2023-01-25T11:40:21.413Z,99474.84
2023-01-25T11:43:39.239Z,99479.13
2023-01-25T11:46:57.297Z,99474.25
2023-01-25T11:50:09.316Z,99465.66
2023-01-25T11:53:44.339Z,99455.44
2023-01-25T11:56:58.794Z,99447.44
2023-01-25T12:00:16.888Z,99439.94
2023-01-25T12:03:57.815Z,99441.56
2023-01-25T12:07:04.467Z,99429.28
2023-01-25T12:10:21.594Z,99435.84
2023-01-25T12:13:34.769Z,99415.41
2023-01-25T12:16:51.436Z,99404.38
2023-01-25T12:20:14.613Z,99401.72
2023-01-25T12:23:33.451Z,99393.81
2023-01-25T12:26:46.237Z,99380.53
2023-01-25T12:29:55.765Z,99369.13
2023-01-25T12:33:13.841Z,99374.22
2023-01-25T12:36:24.984Z,99371.50
2023-01-25T12:39:33.151Z,99361.13
2023-01-25T12:42:41.736Z,99347.88
2023-01-25T12:45:46.723Z,99352.56
2023-01-25T12:48:53.412Z,99349.13
2023-01-25T12:52:02.008Z,99335.84
2023-01-25T12:55:07.515Z,99330.09
2023-01-25T12:58:26.459Z,99328.44
2023-01-25T13:01:37.863Z,99324.59
2023-01-25T13:04:55.608Z,99319.31
2023-01-25T13:08:14.018Z,99311.75
2023-01-25T13:11:23.879Z,99311.34
2023-01-25T13:14:31.680Z,99307.06
2023-01-25T13:17:38.327Z,99306.50
2023-01-25T13:20:53.192Z,99292.19
2023-01-25T13:24:14.467Z,99296.03
2023-01-25T13:27:28.598Z,99287.47
2023-01-25T13:30:34.388Z,99292.16
2023-01-25T13:33:37.543Z,99288.06
2023-01-25T13:36:47.070Z,99288.47
2023-01-25T13:39:52.438Z,99279.53
2023-01-25T13:43:01.714Z,99278.69
2023-01-25T13:46:08.012Z,99271.97
2023-01-25T13:49:23.666Z,99269.13
2023-01-25T13:52:28.000Z,99266.47
2023-01-25T13:55:40.669Z,99261.38
2023-01-25T13:58:48.059Z,99254.03
2023-01-25T14:01:51.980Z,99259.09
2023-01-25T14:04:54.895Z,99250.72
2023-01-25T14:07:58.675Z,99251.13
2023-01-25T14:11:03.033Z,99248.28
2023-01-25T14:14:19.781Z,99241.16
2023-01-25T14:17:24.636Z,99244.63
2023-01-25T14:20:27.740Z,99256.03
2023-01-25T14:23:32.601Z,99259.53
2023-01-25T14:26:39.196Z,99252.59
2023-01-25T14:29:43.510Z,99251.16
2023-01-25T14:32:46.741Z,99246.66
2023-01-25T14:35:55.557Z,99253.41
2023-01-25T14:39:03.206Z,99253.63
2023-01-25T14:42:09.391Z,99247.47
2023-01-25T14:45:14.584Z,99245.28
2023-01-25T14:48:41.638Z,99232.19
2023-01-25T14:51:48.158Z,99236.47
2023-01-25T14:54:55.955Z,99222.81
2023-01-25T14:58:02.550Z,99224.88
2023-01-25T15:01:05.844Z,99218.75
2023-01-25T15:04:12.905Z,99215.69
2023-01-25T15:07:43.053Z,99230.13
2023-01-25T15:10:53.981Z,99214.44
2023-01-25T15:14:05.920Z,99211.38
2023-01-25T15:17:43.201Z,99205.28
2023-01-25T15:20:49.608Z,99204.47
2023-01-25T15:23:54.382Z,99201.59
2023-01-25T15:26:57.985Z,99198.13
2023-01-25T15:30:02.428Z,99196.50
2023-01-25T15:33:06.279Z,99192.41
2023-01-25T15:36:11.122Z,99186.50
2023-01-25T15:39:15.483Z,99172.81
2023-01-25T15:42:18.571Z,99166.91
2023-01-25T15:45:22.807Z,99170.59
2023-01-25T15:48:31.244Z,99157.94
2023-01-25T15:51:35.874Z,99158.97
2023-01-25T15:54:40.832Z,99153.44
2023-01-25T15:57:46.999Z,99148.34
2023-01-25T16:00:51.588Z,99149.19
2023-01-25T16:03:54.696Z,99145.28
2023-01-25T16:06:58.698Z,99144.88
2023-01-25T16:10:01.917Z,99146.13
2023-01-25T16:13:04.876Z,99138.38
2023-01-25T16:16:18.500Z,99133.28
2023-01-25T16:19:23.478Z,99136.94
2023-01-25T16:22:26.313Z,99138.78
2023-01-25T16:25:29.173Z,99131.44
2023-01-25T16:28:32.164Z,99126.34
2023-01-25T16:31:36.451Z,99126.53
2023-01-25T16:34:39.441Z,99130.19
2023-01-25T16:37:42.286Z,99122.88
2023-01-25T16:40:45.195Z,99121.84
2023-01-25T16:43:50.216Z,99121.63
2023-01-25T16:46:55.544Z,99128.78
2023-01-25T16:49:58.446Z,99124.50
2023-01-25T16:53:01.387Z,99122.69
2023-01-25T16:56:04.116Z,99122.28
2023-01-25T16:59:09.286Z,99127.78
2023-01-25T17:02:13.886Z,99118.59
2023-01-25T17:05:16.727Z,99121.41
2023-01-25T17:08:19.592Z,99112.03
2023-01-25T17:11:23.369Z,99100.03
2023-01-25T17:14:26.174Z,99110.63
2023-01-25T17:17:31.330Z,99106.75
2023-01-25T17:20:34.210Z,99106.94
2023-01-25T17:23:38.525Z,99106.75
2023-01-25T17:26:41.773Z,99096.59
2023-01-25T17:29:45.965Z,99099.22
2023-01-25T17:32:50.573Z,99082.72
2023-01-25T17:35:58.482Z,99090.25
2023-01-25T17:39:04.889Z,99092.09
2023-01-25T17:42:09.254Z,99079.06
2023-01-25T17:45:12.726Z,99079.88
2023-01-25T17:48:17.661Z,99072.53
2023-01-25T17:51:20.632Z,99077.81
2023-01-25T17:54:24.064Z,99075.78
2023-01-25T17:57:28.481Z,99075.97
2023-01-25T18:00:34.597Z,99067.63
2023-01-25T18:03:38.973Z,99058.66
2023-01-25T18:06:44.680Z,99061.53
2023-01-25T18:09:47.714Z,99060.69
2023-01-25T18:13:03.687Z,99061.72
2023-01-25T18:16:08.451Z,99057.25
2023-01-25T18:19:13.236Z,99050.72
2023-01-25T18:22:16.213Z,99048.25
2023-01-25T18:25:36.624Z,99049.47
2023-01-25T18:28:39.753Z,99041.13
2023-01-25T18:31:43.373Z,99036.84
2023-01-25T18:34:48.277Z,99028.09
2023-01-25T18:37:51.089Z,99025.22
2023-01-25T18:40:54.484Z,99027.28
2023-01-25T18:43:57.708Z,99015.25
2023-01-25T18:47:10.304Z,99024.59
2023-01-25T18:50:16.193Z,99016.66
2023-01-25T18:53:19.112Z,99012.19
2023-01-25T18:56:23.079Z,99020.13
2023-01-25T18:59:26.287Z,99021.56
2023-01-25T19:02:30.466Z,99012.78
2023-01-25T19:05:37.031Z,99004.22
2023-01-25T19:08:43.205Z,99006.88
2023-01-25T19:11:46.286Z,99002.00
2023-01-25T19:14:49.598Z,98999.13
2023-01-25T19:17:52.375Z,98998.75
2023-01-25T19:20:56.431Z,99002.41
2023-01-25T19:23:59.271Z,98995.88
2023-01-25T19:27:02.151Z,98995.69
2023-01-25T19:30:05.914Z,98998.97
2023-01-25T19:33:08.792Z,98994.44
2023-01-25T19:36:15.418Z,98992.63
2023-01-25T19:39:19.086Z,98992.22
2023-01-25T19:42:21.851Z,98990.56
2023-01-25T19:45:24.651Z,98982.22
2023-01-25T19:48:32.198Z,98976.53
2023-01-25T19:51:38.324Z,98974.69
2023-01-25T19:54:41.444Z,98973.47
2023-01-25T19:57:44.703Z,98971.03
2023-01-25T20:00:47.867Z,98974.06
2023-01-25T20:03:51.825Z,98966.94
2023-01-25T20:06:55.952Z,98964.50
2023-01-25T20:09:58.766Z,98958.38
2023-01-25T20:13:01.588Z,98957.16
2023-01-25T20:16:05.222Z,98967.38
2023-01-25T20:19:08.042Z,98963.47
2023-01-25T20:22:12.674Z,98955.13
2023-01-25T20:25:15.558Z,98947.22
2023-01-25T20:28:18.239Z,98945.97
2023-01-25T20:31:22.936Z,98940.69
2023-01-25T20:34:25.846Z,98942.91
2023-01-25T20:37:30.218Z,98939.88
2023-01-25T20:40:33.474Z,98941.69
2023-01-25T20:43:36.745Z,98939.03
2023-01-25T20:46:41.488Z,98935.38
2023-01-25T20:49:44.773Z,98930.06
2023-01-25T20:52:48.989Z,98920.91
2023-01-25T20:55:56.289Z,98919.50
2023-01-25T20:58:59.175Z,98910.72
2023-01-25T21:02:01.990Z,98907.66
2023-01-25T21:05:05.139Z,98898.69
2023-01-25T21:08:09.510Z,98894.00
2023-01-25T21:11:13.535Z,98892.78
2023-01-25T21:14:16.551Z,98898.09
2023-01-25T21:17:19.394Z,98904.22
2023-01-25T21:20:22.660Z,98894.84
2023-01-25T21:23:26.992Z,98890.38
2023-01-25T21:26:31.789Z,98890.38
2023-01-25T21:29:34.678Z,98877.50
2023-01-25T21:32:37.636Z,98879.38
2023-01-25T21:35:40.419Z,98877.72
2023-01-25T21:38:46.023Z,98877.94
2023-01-25T21:41:48.895Z,98865.13
2023-01-25T21:45:09.943Z,98855.97
2023-01-25T21:48:13.104Z,98860.44
2023-01-25T21:51:33.886Z,98858.41
2023-01-25T21:54:38.868Z,98856.16
2023-01-25T21:57:46.979Z,98854.75
2023-01-25T22:00:49.675Z,98852.09
2023-01-25T22:03:52.826Z,98852.88
2023-01-25T22:06:55.765Z,98846.59
2023-01-25T22:10:00.968Z,98854.53
2023-01-25T22:13:03.793Z,98855.34
2023-01-25T22:16:08.581Z,98847.81
2023-01-25T22:19:11.473Z,98843.72
2023-01-25T22:22:14.497Z,98854.16
2023-01-25T22:25:21.441Z,98846.97
2023-01-25T22:28:27.756Z,98844.13
2023-01-25T22:31:32.328Z,98846.16
2023-01-25T22:34:35.917Z,98839.25
2023-01-25T22:37:38.854Z,98841.09
2023-01-25T22:40:43.634Z,98841.69
2023-01-25T22:43:46.831Z,98841.28
2023-01-25T22:46:50.713Z,98842.50
2023-01-25T22:49:53.574Z,98841.31
2023-01-25T22:52:56.452Z,98835.63
2023-01-25T22:56:06.237Z,98831.13
2023-01-25T22:59:14.741Z,98831.75
2023-01-25T23:02:17.638Z,98831.75
2023-01-25T23:05:20.644Z,98832.56
2023-01-25T23:08:23.681Z,98823.81
2023-01-25T23:11:32.123Z,98826.28
2023-01-25T23:14:54.416Z,98825.06
2023-01-25T23:18:11.272Z,98824.03
2023-01-25T23:21:14.791Z,98811.25
2023-01-25T23:24:17.605Z,98815.28
2023-01-25T23:27:21.928Z,98814.47
2023-01-25T23:30:24.732Z,98807.13
2023-01-25T23:33:28.188Z,98807.97
2023-01-25T23:36:32.902Z,98805.91
2023-01-25T23:39:35.827Z,98806.13
2023-01-25T23:42:40.211Z,98793.69
2023-01-25T23:45:44.501Z,98787.78
2023-01-25T23:48:47.975Z,98786.97
2023-01-25T23:51:50.743Z,98781.66
2023-01-25T23:54:53.625Z,98779.66
2023-01-25T23:57:57.839Z,98774.38
